sensor_id;sensor_type;location;lat;lon;timestamp;temperature;humidity
20526;DHT22;10421;49.142;9.232;2023-11-19T00:00:59;11.20;99.90
20526;DHT22;10421;49.142;9.232;2023-11-19T00:03:25;11.20;99.90
20526;DHT22;10421;49.142;9.232;2023-11-19T00:05:52;11.20;99.90
20526;DHT22;10421;49.142;9.232;2023-11-19T00:08:20;11.20;99.90
20526;DHT22;10421;49.142;9.232;2023-11-19T00:10:47;11.20;99.90
20526;DHT22;10421;49.142;9.232;2023-11-19T00:13:13;11.20;99.90
20526;DHT22;10421;49.142;9.232;2023-11-19T00:15:41;11.30;99.90
20526;DHT22;10421;49.142;9.232;2023-11-19T00:18:08;11.30;99.90
20526;DHT22;10421;49.142;9.232;2023-11-19T00:20:35;11.30;99.90
20526;DHT22;10421;49.142;9.232;2023-11-19T00:23:01;11.30;99.90
20526;DHT22;10421;49.142;9.232;2023-11-19T00:25:30;11.30;99.90
20526;DHT22;10421;49.142;9.232;2023-11-19T00:27:57;11.40;99.90
20526;DHT22;10421;49.142;9.232;2023-11-19T00:30:25;11.50;99.90
20526;DHT22;10421;49.142;9.232;2023-11-19T00:32:51;11.50;99.90
20526;DHT22;10421;49.142;9.232;2023-11-19T00:35:18;11.50;99.90
20526;DHT22;10421;49.142;9.232;2023-11-19T00:37:45;11.60;99.90
20526;DHT22;10421;49.142;9.232;2023-11-19T00:40:13;11.60;99.90
20526;DHT22;10421;49.142;9.232;2023-11-19T00:42:42;11.60;99.90
20526;DHT22;10421;49.142;9.232;2023-11-19T00:45:09;11.70;99.90
20526;DHT22;10421;49.142;9.232;2023-11-19T00:47:38;11.70;99.90
20526;DHT22;10421;49.142;9.232;2023-11-19T00:50:06;11.70;99.90
20526;DHT22;10421;49.142;9.232;2023-11-19T00:52:34;11.70;99.90
20526;DHT22;10421;49.142;9.232;2023-11-19T00:55:02;11.70;99.90
20526;DHT22;10421;49.142;9.232;2023-11-19T00:57:29;11.70;99.90
20526;DHT22;10421;49.142;9.232;2023-11-19T00:59:59;11.70;99.90
20526;DHT22;10421;49.142;9.232;2023-11-19T01:02:26;11.70;99.90
20526;DHT22;10421;49.142;9.232;2023-11-19T01:04:53;11.70;99.90
20526;DHT22;10421;49.142;9.232;2023-11-19T01:07:21;11.70;99.90
20526;DHT22;10421;49.142;9.232;2023-11-19T01:09:49;11.70;99.90
20526;DHT22;10421;49.142;9.232;2023-11-19T01:12:16;11.70;99.90
20526;DHT22;10421;49.142;9.232;2023-11-19T01:14:43;11.80;99.90
20526;DHT22;10421;49.142;9.232;2023-11-19T01:17:11;11.80;99.90
20526;DHT22;10421;49.142;9.232;2023-11-19T01:19:38;11.80;99.90
20526;DHT22;10421;49.142;9.232;2023-11-19T01:22:04;11.80;99.90
20526;DHT22;10421;49.142;9.232;2023-11-19T01:24:31;11.80;99.90
20526;DHT22;10421;49.142;9.232;2023-11-19T01:26:58;11.80;99.90
20526;DHT22;10421;49.142;9.232;2023-11-19T01:29:25;11.80;99.90
20526;DHT22;10421;49.142;9.232;2023-11-19T01:31:52;11.80;99.90
20526;DHT22;10421;49.142;9.232;2023-11-19T01:34:20;11.80;99.90
20526;DHT22;10421;49.142;9.232;2023-11-19T01:36:47;11.70;99.90
20526;DHT22;10421;49.142;9.232;2023-11-19T01:39:14;11.70;99.90
20526;DHT22;10421;49.142;9.232;2023-11-19T01:41:42;11.70;99.90
20526;DHT22;10421;49.142;9.232;2023-11-19T01:44:09;11.70;99.90
20526;DHT22;10421;49.142;9.232;2023-11-19T01:46:38;11.70;99.90
20526;DHT22;10421;49.142;9.232;2023-11-19T01:49:07;11.70;99.90
20526;DHT22;10421;49.142;9.232;2023-11-19T01:51:35;11.70;99.90
20526;DHT22;10421;49.142;9.232;2023-11-19T01:54:02;11.70;99.90
20526;DHT22;10421;49.142;9.232;2023-11-19T01:56:30;11.70;99.90
20526;DHT22;10421;49.142;9.232;2023-11-19T01:58:58;11.70;99.90
20526;DHT22;10421;49.142;9.232;2023-11-19T02:01:25;11.80;99.90
20526;DHT22;10421;49.142;9.232;2023-11-19T02:03:52;11.80;99.90
20526;DHT22;10421;49.142;9.232;2023-11-19T02:06:19;11.80;99.90
20526;DHT22;10421;49.142;9.232;2023-11-19T02:08:47;11.80;99.90
20526;DHT22;10421;49.142;9.232;2023-11-19T02:11:14;11.80;99.90
20526;DHT22;10421;49.142;9.232;2023-11-19T02:13:41;11.80;99.90
20526;DHT22;10421;49.142;9.232;2023-11-19T02:16:09;11.80;99.90
20526;DHT22;10421;49.142;9.232;2023-11-19T02:18:36;11.80;99.90
20526;DHT22;10421;49.142;9.232;2023-11-19T02:21:03;11.90;99.90
20526;DHT22;10421;49.142;9.232;2023-11-19T02:23:31;11.90;99.90
20526;DHT22;10421;49.142;9.232;2023-11-19T02:26:05;11.80;99.90
20526;DHT22;10421;49.142;9.232;2023-11-19T02:28:37;11.90;99.90
20526;DHT22;10421;49.142;9.232;2023-11-19T02:31:04;11.90;99.90
20526;DHT22;10421;49.142;9.232;2023-11-19T02:33:34;11.90;99.90
20526;DHT22;10421;49.142;9.232;2023-11-19T02:36:01;11.90;99.90
20526;DHT22;10421;49.142;9.232;2023-11-19T02:38:29;11.90;99.90
20526;DHT22;10421;49.142;9.232;2023-11-19T02:40:56;11.90;99.90
20526;DHT22;10421;49.142;9.232;2023-11-19T02:43:23;11.90;99.90
20526;DHT22;10421;49.142;9.232;2023-11-19T02:45:51;11.90;99.90
20526;DHT22;10421;49.142;9.232;2023-11-19T02:48:21;11.80;99.90
20526;DHT22;10421;49.142;9.232;2023-11-19T02:50:48;11.80;99.90
20526;DHT22;10421;49.142;9.232;2023-11-19T02:53:14;11.80;99.90
20526;DHT22;10421;49.142;9.232;2023-11-19T02:55:42;11.80;99.90
20526;DHT22;10421;49.142;9.232;2023-11-19T02:58:13;11.80;99.90
20526;DHT22;10421;49.142;9.232;2023-11-19T03:00:49;11.80;99.90
20526;DHT22;10421;49.142;9.232;2023-11-19T03:03:24;11.80;99.90
20526;DHT22;10421;49.142;9.232;2023-11-19T03:05:54;11.80;99.90
20526;DHT22;10421;49.142;9.232;2023-11-19T03:08:21;11.80;99.90
20526;DHT22;10421;49.142;9.232;2023-11-19T03:10:48;11.80;99.90
20526;DHT22;10421;49.142;9.232;2023-11-19T03:13:15;11.80;99.90
20526;DHT22;10421;49.142;9.232;2023-11-19T03:15:42;11.80;99.90
20526;DHT22;10421;49.142;9.232;2023-11-19T03:18:09;11.80;99.90
20526;DHT22;10421;49.142;9.232;2023-11-19T03:20:37;11.80;99.90
20526;DHT22;10421;49.142;9.232;2023-11-19T03:23:04;11.80;99.90
20526;DHT22;10421;49.142;9.232;2023-11-19T03:25:31;11.80;99.90
20526;DHT22;10421;49.142;9.232;2023-11-19T03:28:00;11.80;99.90
20526;DHT22;10421;49.142;9.232;2023-11-19T03:30:27;11.90;99.90
20526;DHT22;10421;49.142;9.232;2023-11-19T03:32:54;11.90;99.90
20526;DHT22;10421;49.142;9.232;2023-11-19T03:35:21;12.00;99.90
20526;DHT22;10421;49.142;9.232;2023-11-19T03:37:49;12.00;99.90
20526;DHT22;10421;49.142;9.232;2023-11-19T03:40:16;12.00;99.90
20526;DHT22;10421;49.142;9.232;2023-11-19T03:42:44;12.10;99.90
20526;DHT22;10421;49.142;9.232;2023-11-19T03:45:11;12.10;99.90
20526;DHT22;10421;49.142;9.232;2023-11-19T03:47:38;12.10;99.90
20526;DHT22;10421;49.142;9.232;2023-11-19T03:50:06;12.20;99.90
20526;DHT22;10421;49.142;9.232;2023-11-19T03:52:33;12.20;99.90
20526;DHT22;10421;49.142;9.232;2023-11-19T03:55:01;12.20;99.90
20526;DHT22;10421;49.142;9.232;2023-11-19T03:57:28;12.20;99.90
20526;DHT22;10421;49.142;9.232;2023-11-19T03:59:55;12.30;99.90
20526;DHT22;10421;49.142;9.232;2023-11-19T04:02:24;12.30;99.90
20526;DHT22;10421;49.142;9.232;2023-11-19T04:04:53;12.30;99.90
20526;DHT22;10421;49.142;9.232;2023-11-19T04:07:20;12.30;99.90
20526;DHT22;10421;49.142;9.232;2023-11-19T04:09:46;12.30;99.90
20526;DHT22;10421;49.142;9.232;2023-11-19T04:12:14;12.30;99.90
20526;DHT22;10421;49.142;9.232;2023-11-19T04:14:41;12.30;99.90
20526;DHT22;10421;49.142;9.232;2023-11-19T04:17:09;12.40;99.90
20526;DHT22;10421;49.142;9.232;2023-11-19T04:19:36;12.40;99.90
20526;DHT22;10421;49.142;9.232;2023-11-19T04:22:03;12.50;99.90
20526;DHT22;10421;49.142;9.232;2023-11-19T04:24:30;12.50;99.90
20526;DHT22;10421;49.142;9.232;2023-11-19T04:26:57;12.60;99.90
20526;DHT22;10421;49.142;9.232;2023-11-19T04:29:25;12.50;99.90
20526;DHT22;10421;49.142;9.232;2023-11-19T04:31:51;12.50;99.90
20526;DHT22;10421;49.142;9.232;2023-11-19T04:34:18;12.50;99.90
20526;DHT22;10421;49.142;9.232;2023-11-19T04:36:45;12.50;99.90
20526;DHT22;10421;49.142;9.232;2023-11-19T04:39:11;12.50;99.90
20526;DHT22;10421;49.142;9.232;2023-11-19T04:41:47;12.50;99.90
20526;DHT22;10421;49.142;9.232;2023-11-19T04:44:14;12.50;99.90
20526;DHT22;10421;49.142;9.232;2023-11-19T04:46:42;12.40;99.90
20526;DHT22;10421;49.142;9.232;2023-11-19T04:49:09;12.50;99.90
20526;DHT22;10421;49.142;9.232;2023-11-19T04:51:38;12.50;99.90
20526;DHT22;10421;49.142;9.232;2023-11-19T04:54:06;12.50;99.90
20526;DHT22;10421;49.142;9.232;2023-11-19T04:56:34;12.60;99.90
20526;DHT22;10421;49.142;9.232;2023-11-19T04:59:00;12.50;99.90
20526;DHT22;10421;49.142;9.232;2023-11-19T05:01:27;12.50;99.90
20526;DHT22;10421;49.142;9.232;2023-11-19T05:03:56;12.50;99.90
20526;DHT22;10421;49.142;9.232;2023-11-19T05:06:26;12.60;99.90
20526;DHT22;10421;49.142;9.232;2023-11-19T05:08:53;12.60;99.90
20526;DHT22;10421;49.142;9.232;2023-11-19T05:11:20;12.60;99.90
20526;DHT22;10421;49.142;9.232;2023-11-19T05:13:47;12.70;99.90
20526;DHT22;10421;49.142;9.232;2023-11-19T05:16:14;12.70;99.90
20526;DHT22;10421;49.142;9.232;2023-11-19T05:18:41;12.70;99.90
20526;DHT22;10421;49.142;9.232;2023-11-19T05:21:09;12.80;99.90
20526;DHT22;10421;49.142;9.232;2023-11-19T05:23:35;12.80;99.90
20526;DHT22;10421;49.142;9.232;2023-11-19T05:26:02;12.90;99.90
20526;DHT22;10421;49.142;9.232;2023-11-19T05:28:29;12.90;99.90
20526;DHT22;10421;49.142;9.232;2023-11-19T05:30:56;12.90;99.90
20526;DHT22;10421;49.142;9.232;2023-11-19T05:33:23;13.00;99.90
20526;DHT22;10421;49.142;9.232;2023-11-19T05:35:50;13.00;99.90
20526;DHT22;10421;49.142;9.232;2023-11-19T05:38:18;13.00;99.90
20526;DHT22;10421;49.142;9.232;2023-11-19T05:40:46;13.00;99.90
20526;DHT22;10421;49.142;9.232;2023-11-19T05:43:14;13.10;99.90
20526;DHT22;10421;49.142;9.232;2023-11-19T05:45:42;13.20;99.90
20526;DHT22;10421;49.142;9.232;2023-11-19T05:48:09;13.20;99.90
20526;DHT22;10421;49.142;9.232;2023-11-19T05:50:36;13.30;99.90
20526;DHT22;10421;49.142;9.232;2023-11-19T05:53:02;13.30;99.90
20526;DHT22;10421;49.142;9.232;2023-11-19T05:55:33;13.30;99.90
20526;DHT22;10421;49.142;9.232;2023-11-19T05:58:00;13.40;99.90
20526;DHT22;10421;49.142;9.232;2023-11-19T06:00:28;13.40;99.90
20526;DHT22;10421;49.142;9.232;2023-11-19T06:02:56;13.50;99.90
20526;DHT22;10421;49.142;9.232;2023-11-19T06:05:22;13.60;99.90
20526;DHT22;10421;49.142;9.232;2023-11-19T06:07:49;13.60;99.90
20526;DHT22;10421;49.142;9.232;2023-11-19T06:10:16;13.60;99.90
20526;DHT22;10421;49.142;9.232;2023-11-19T06:12:46;13.70;99.90
20526;DHT22;10421;49.142;9.232;2023-11-19T06:15:13;13.80;99.90
20526;DHT22;10421;49.142;9.232;2023-11-19T06:17:39;13.80;99.90
20526;DHT22;10421;49.142;9.232;2023-11-19T06:20:07;13.80;99.90
20526;DHT22;10421;49.142;9.232;2023-11-19T06:22:34;13.80;99.90
20526;DHT22;10421;49.142;9.232;2023-11-19T06:25:01;13.80;99.90
20526;DHT22;10421;49.142;9.232;2023-11-19T06:27:32;13.80;99.90
20526;DHT22;10421;49.142;9.232;2023-11-19T06:30:00;13.90;99.90
20526;DHT22;10421;49.142;9.232;2023-11-19T06:32:27;13.80;99.90
20526;DHT22;10421;49.142;9.232;2023-11-19T06:34:54;13.90;99.90
20526;DHT22;10421;49.142;9.232;2023-11-19T06:37:22;13.90;99.90
20526;DHT22;10421;49.142;9.232;2023-11-19T06:39:49;13.80;99.90
20526;DHT22;10421;49.142;9.232;2023-11-19T06:42:16;13.80;99.90
20526;DHT22;10421;49.142;9.232;2023-11-19T06:44:43;13.90;99.90
20526;DHT22;10421;49.142;9.232;2023-11-19T06:47:11;13.80;99.90
20526;DHT22;10421;49.142;9.232;2023-11-19T06:49:38;13.80;99.90
20526;DHT22;10421;49.142;9.232;2023-11-19T06:52:04;13.80;99.90
20526;DHT22;10421;49.142;9.232;2023-11-19T06:54:31;13.80;99.90
20526;DHT22;10421;49.142;9.232;2023-11-19T06:56:58;13.90;99.90
20526;DHT22;10421;49.142;9.232;2023-11-19T06:59:25;14.10;99.90
20526;DHT22;10421;49.142;9.232;2023-11-19T07:01:52;14.00;99.90
20526;DHT22;10421;49.142;9.232;2023-11-19T07:04:20;14.10;99.90
20526;DHT22;10421;49.142;9.232;2023-11-19T07:06:46;14.20;99.90
20526;DHT22;10421;49.142;9.232;2023-11-19T07:09:14;14.20;99.90
20526;DHT22;10421;49.142;9.232;2023-11-19T07:11:41;14.30;99.90
20526;DHT22;10421;49.142;9.232;2023-11-19T07:14:09;14.40;99.90
20526;DHT22;10421;49.142;9.232;2023-11-19T07:16:37;14.40;99.90
20526;DHT22;10421;49.142;9.232;2023-11-19T07:19:04;14.30;99.90
20526;DHT22;10421;49.142;9.232;2023-11-19T07:21:33;14.20;99.90
20526;DHT22;10421;49.142;9.232;2023-11-19T07:24:00;14.30;99.90
20526;DHT22;10421;49.142;9.232;2023-11-19T07:26:26;14.20;99.90
20526;DHT22;10421;49.142;9.232;2023-11-19T07:28:53;14.30;99.90
20526;DHT22;10421;49.142;9.232;2023-11-19T07:31:21;14.30;99.90
20526;DHT22;10421;49.142;9.232;2023-11-19T07:33:47;14.40;99.90
20526;DHT22;10421;49.142;9.232;2023-11-19T07:36:14;14.40;99.90
20526;DHT22;10421;49.142;9.232;2023-11-19T07:38:43;14.50;99.90
20526;DHT22;10421;49.142;9.232;2023-11-19T07:41:10;14.50;99.90
20526;DHT22;10421;49.142;9.232;2023-11-19T07:43:39;14.50;99.90
20526;DHT22;10421;49.142;9.232;2023-11-19T07:46:10;14.50;99.90
20526;DHT22;10421;49.142;9.232;2023-11-19T07:48:38;14.50;99.90
20526;DHT22;10421;49.142;9.232;2023-11-19T07:51:05;14.40;99.90
20526;DHT22;10421;49.142;9.232;2023-11-19T07:53:32;14.50;99.90
20526;DHT22;10421;49.142;9.232;2023-11-19T07:56:00;14.60;99.90
20526;DHT22;10421;49.142;9.232;2023-11-19T07:58:27;14.60;99.90
20526;DHT22;10421;49.142;9.232;2023-11-19T08:00:54;14.60;99.90
20526;DHT22;10421;49.142;9.232;2023-11-19T08:03:21;14.70;99.90
20526;DHT22;10421;49.142;9.232;2023-11-19T08:05:48;14.60;99.90
20526;DHT22;10421;49.142;9.232;2023-11-19T08:08:16;14.60;99.90
20526;DHT22;10421;49.142;9.232;2023-11-19T08:10:43;14.60;99.90
20526;DHT22;10421;49.142;9.232;2023-11-19T08:13:11;14.60;99.90
20526;DHT22;10421;49.142;9.232;2023-11-19T08:15:38;14.70;99.90
20526;DHT22;10421;49.142;9.232;2023-11-19T08:18:05;14.70;99.90
20526;DHT22;10421;49.142;9.232;2023-11-19T08:20:32;14.70;99.90
20526;DHT22;10421;49.142;9.232;2023-11-19T08:22:59;14.70;99.90
20526;DHT22;10421;49.142;9.232;2023-11-19T08:25:26;14.70;99.90
20526;DHT22;10421;49.142;9.232;2023-11-19T08:27:54;14.70;99.90
20526;DHT22;10421;49.142;9.232;2023-11-19T08:30:22;14.70;99.90
20526;DHT22;10421;49.142;9.232;2023-11-19T08:32:49;14.80;99.90
20526;DHT22;10421;49.142;9.232;2023-11-19T08:35:16;14.80;99.90
20526;DHT22;10421;49.142;9.232;2023-11-19T08:37:42;14.90;99.90
20526;DHT22;10421;49.142;9.232;2023-11-19T08:40:12;14.90;99.90
20526;DHT22;10421;49.142;9.232;2023-11-19T08:42:40;14.90;99.90
20526;DHT22;10421;49.142;9.232;2023-11-19T08:45:08;14.90;99.90
20526;DHT22;10421;49.142;9.232;2023-11-19T08:47:37;15.00;99.90
20526;DHT22;10421;49.142;9.232;2023-11-19T08:50:06;14.90;99.90
20526;DHT22;10421;49.142;9.232;2023-11-19T08:52:33;14.90;99.90
20526;DHT22;10421;49.142;9.232;2023-11-19T08:55:00;14.90;99.90
20526;DHT22;10421;49.142;9.232;2023-11-19T08:57:27;14.90;99.90
20526;DHT22;10421;49.142;9.232;2023-11-19T08:59:53;14.90;99.90
20526;DHT22;10421;49.142;9.232;2023-11-19T09:02:20;14.90;99.90
20526;DHT22;10421;49.142;9.232;2023-11-19T09:04:48;14.90;99.90
20526;DHT22;10421;49.142;9.232;2023-11-19T09:07:15;14.80;99.90
20526;DHT22;10421;49.142;9.232;2023-11-19T09:09:41;14.90;99.90
20526;DHT22;10421;49.142;9.232;2023-11-19T09:12:08;14.90;99.90
20526;DHT22;10421;49.142;9.232;2023-11-19T09:14:35;15.00;99.90
20526;DHT22;10421;49.142;9.232;2023-11-19T09:17:01;15.20;99.90
20526;DHT22;10421;49.142;9.232;2023-11-19T09:19:28;15.70;99.90
20526;DHT22;10421;49.142;9.232;2023-11-19T09:21:56;16.30;99.90
20526;DHT22;10421;49.142;9.232;2023-11-19T09:24:23;16.90;99.90
20526;DHT22;10421;49.142;9.232;2023-11-19T09:26:50;17.20;99.90
20526;DHT22;10421;49.142;9.232;2023-11-19T09:29:16;17.40;99.90
20526;DHT22;10421;49.142;9.232;2023-11-19T09:31:43;17.60;99.90
20526;DHT22;10421;49.142;9.232;2023-11-19T09:34:10;18.20;99.90
20526;DHT22;10421;49.142;9.232;2023-11-19T09:36:37;18.90;99.90
20526;DHT22;10421;49.142;9.232;2023-11-19T09:39:05;19.00;99.90
20526;DHT22;10421;49.142;9.232;2023-11-19T09:41:33;18.80;99.90
20526;DHT22;10421;49.142;9.232;2023-11-19T09:44:00;18.50;99.90
20526;DHT22;10421;49.142;9.232;2023-11-19T09:46:27;18.30;99.90
20526;DHT22;10421;49.142;9.232;2023-11-19T09:48:56;18.10;99.90
20526;DHT22;10421;49.142;9.232;2023-11-19T09:51:25;17.80;99.90
20526;DHT22;10421;49.142;9.232;2023-11-19T09:53:52;17.60;99.90
20526;DHT22;10421;49.142;9.232;2023-11-19T09:56:20;17.40;99.90
20526;DHT22;10421;49.142;9.232;2023-11-19T09:58:47;17.10;99.90
20526;DHT22;10421;49.142;9.232;2023-11-19T10:01:14;16.90;99.90
20526;DHT22;10421;49.142;9.232;2023-11-19T10:03:41;16.80;99.90
20526;DHT22;10421;49.142;9.232;2023-11-19T10:06:09;16.70;99.90
20526;DHT22;10421;49.142;9.232;2023-11-19T10:08:37;16.80;99.90
20526;DHT22;10421;49.142;9.232;2023-11-19T10:11:05;17.00;99.90
20526;DHT22;10421;49.142;9.232;2023-11-19T10:13:35;17.10;99.90
20526;DHT22;10421;49.142;9.232;2023-11-19T10:16:06;17.30;99.90
20526;DHT22;10421;49.142;9.232;2023-11-19T10:18:33;17.50;99.90
20526;DHT22;10421;49.142;9.232;2023-11-19T10:21:04;17.60;99.90
20526;DHT22;10421;49.142;9.232;2023-11-19T10:23:31;17.70;99.90
20526;DHT22;10421;49.142;9.232;2023-11-19T10:26:03;17.80;99.90
20526;DHT22;10421;49.142;9.232;2023-11-19T10:28:39;18.10;99.90
20526;DHT22;10421;49.142;9.232;2023-11-19T10:31:08;18.60;99.90
20526;DHT22;10421;49.142;9.232;2023-11-19T10:33:35;18.90;99.90
20526;DHT22;10421;49.142;9.232;2023-11-19T10:36:02;18.90;99.90
20526;DHT22;10421;49.142;9.232;2023-11-19T10:38:29;18.80;99.90
20526;DHT22;10421;49.142;9.232;2023-11-19T10:40:56;18.80;99.90
20526;DHT22;10421;49.142;9.232;2023-11-19T10:43:23;18.70;99.90
20526;DHT22;10421;49.142;9.232;2023-11-19T10:45:52;18.80;99.90
20526;DHT22;10421;49.142;9.232;2023-11-19T10:48:18;19.00;99.90
20526;DHT22;10421;49.142;9.232;2023-11-19T10:50:52;19.30;99.90
20526;DHT22;10421;49.142;9.232;2023-11-19T10:53:21;19.70;99.90
20526;DHT22;10421;49.142;9.232;2023-11-19T10:55:51;20.00;99.50
20526;DHT22;10421;49.142;9.232;2023-11-19T10:58:19;20.40;98.90
20526;DHT22;10421;49.142;9.232;2023-11-19T11:00:51;20.60;98.30
20526;DHT22;10421;49.142;9.232;2023-11-19T11:03:21;21.20;97.80
20526;DHT22;10421;49.142;9.232;2023-11-19T11:05:49;21.40;96.50
20526;DHT22;10421;49.142;9.232;2023-11-19T11:08:17;21.80;95.50
20526;DHT22;10421;49.142;9.232;2023-11-19T11:10:46;22.20;94.50
20526;DHT22;10421;49.142;9.232;2023-11-19T11:13:14;22.50;94.00
20526;DHT22;10421;49.142;9.232;2023-11-19T11:15:41;22.60;93.20
20526;DHT22;10421;49.142;9.232;2023-11-19T11:18:09;22.70;93.20
20526;DHT22;10421;49.142;9.232;2023-11-19T11:20:37;22.80;92.80
20526;DHT22;10421;49.142;9.232;2023-11-19T11:23:25;23.10;92.10
20526;DHT22;10421;49.142;9.232;2023-11-19T11:26:04;23.50;91.50
20526;DHT22;10421;49.142;9.232;2023-11-19T11:28:41;23.90;90.10
20526;DHT22;10421;49.142;9.232;2023-11-19T11:31:21;23.80;88.30
20526;DHT22;10421;49.142;9.232;2023-11-19T11:34:10;24.10;88.10
20526;DHT22;10421;49.142;9.232;2023-11-19T11:36:48;24.10;86.70
20526;DHT22;10421;49.142;9.232;2023-11-19T11:39:21;24.20;87.10
20526;DHT22;10421;49.142;9.232;2023-11-19T11:42:34;24.30;86.70
20526;DHT22;10421;49.142;9.232;2023-11-19T11:45:03;24.30;85.00
20526;DHT22;10421;49.142;9.232;2023-11-19T11:48:10;24.30;84.00
20526;DHT22;10421;49.142;9.232;2023-11-19T11:50:52;24.00;84.30
20526;DHT22;10421;49.142;9.232;2023-11-19T11:53:22;24.00;83.40
20526;DHT22;10421;49.142;9.232;2023-11-19T11:55:54;24.30;83.70
20526;DHT22;10421;49.142;9.232;2023-11-19T11:58:26;24.30;83.00
20526;DHT22;10421;49.142;9.232;2023-11-19T12:00:53;23.90;83.70
20526;DHT22;10421;49.142;9.232;2023-11-19T12:03:21;23.50;83.80
20526;DHT22;10421;49.142;9.232;2023-11-19T12:05:48;23.50;85.30
20526;DHT22;10421;49.142;9.232;2023-11-19T12:08:18;23.40;84.50
20526;DHT22;10421;49.142;9.232;2023-11-19T12:10:48;23.40;84.70
20526;DHT22;10421;49.142;9.232;2023-11-19T12:13:16;23.20;85.50
20526;DHT22;10421;49.142;9.232;2023-11-19T12:16:09;22.90;85.20
20526;DHT22;10421;49.142;9.232;2023-11-19T12:18:39;22.60;86.00
20526;DHT22;10421;49.142;9.232;2023-11-19T12:21:06;22.30;87.60
20526;DHT22;10421;49.142;9.232;2023-11-19T12:23:35;22.00;88.80
20526;DHT22;10421;49.142;9.232;2023-11-19T12:26:03;21.80;89.90
20526;DHT22;10421;49.142;9.232;2023-11-19T12:28:30;21.60;90.00
20526;DHT22;10421;49.142;9.232;2023-11-19T12:31:08;21.30;89.70
20526;DHT22;10421;49.142;9.232;2023-11-19T12:33:35;21.10;90.20
20526;DHT22;10421;49.142;9.232;2023-11-19T12:36:04;20.90;90.70
20526;DHT22;10421;49.142;9.232;2023-11-19T12:38:31;20.60;91.30
20526;DHT22;10421;49.142;9.232;2023-11-19T12:41:06;20.50;91.70
20526;DHT22;10421;49.142;9.232;2023-11-19T12:43:34;20.50;91.70
20526;DHT22;10421;49.142;9.232;2023-11-19T12:46:01;20.30;91.80
20526;DHT22;10421;49.142;9.232;2023-11-19T12:48:28;20.30;92.30
20526;DHT22;10421;49.142;9.232;2023-11-19T12:50:56;20.20;92.50
20526;DHT22;10421;49.142;9.232;2023-11-19T12:53:25;20.10;92.90
20526;DHT22;10421;49.142;9.232;2023-11-19T12:55:53;20.00;92.70
20526;DHT22;10421;49.142;9.232;2023-11-19T12:58:32;19.90;92.60
20526;DHT22;10421;49.142;9.232;2023-11-19T13:01:02;19.70;93.00
20526;DHT22;10421;49.142;9.232;2023-11-19T13:03:31;19.70;93.20
20526;DHT22;10421;49.142;9.232;2023-11-19T13:06:02;19.70;93.60
20526;DHT22;10421;49.142;9.232;2023-11-19T13:08:36;19.50;93.90
20526;DHT22;10421;49.142;9.232;2023-11-19T13:11:04;19.50;94.10
20526;DHT22;10421;49.142;9.232;2023-11-19T13:13:33;19.50;94.30
20526;DHT22;10421;49.142;9.232;2023-11-19T13:16:04;19.40;94.30
20526;DHT22;10421;49.142;9.232;2023-11-19T13:18:31;19.20;94.50
20526;DHT22;10421;49.142;9.232;2023-11-19T13:20:58;19.20;94.60
20526;DHT22;10421;49.142;9.232;2023-11-19T13:23:25;19.30;94.60
20526;DHT22;10421;49.142;9.232;2023-11-19T13:25:52;19.40;94.50
20526;DHT22;10421;49.142;9.232;2023-11-19T13:28:18;19.50;94.60
20526;DHT22;10421;49.142;9.232;2023-11-19T13:30:46;19.60;94.40
20526;DHT22;10421;49.142;9.232;2023-11-19T13:33:13;19.60;94.50
20526;DHT22;10421;49.142;9.232;2023-11-19T13:35:40;19.50;94.20
20526;DHT22;10421;49.142;9.232;2023-11-19T13:38:07;19.50;94.30
20526;DHT22;10421;49.142;9.232;2023-11-19T13:40:34;19.50;94.30
20526;DHT22;10421;49.142;9.232;2023-11-19T13:43:01;19.40;94.00
20526;DHT22;10421;49.142;9.232;2023-11-19T13:45:28;19.20;94.30
20526;DHT22;10421;49.142;9.232;2023-11-19T13:47:56;19.00;94.80
20526;DHT22;10421;49.142;9.232;2023-11-19T13:50:23;18.80;95.00
20526;DHT22;10421;49.142;9.232;2023-11-19T13:52:50;18.70;95.30
20526;DHT22;10421;49.142;9.232;2023-11-19T13:55:16;18.60;95.60
20526;DHT22;10421;49.142;9.232;2023-11-19T13:57:43;18.50;95.70
20526;DHT22;10421;49.142;9.232;2023-11-19T14:00:11;18.60;95.80
20526;DHT22;10421;49.142;9.232;2023-11-19T14:02:39;18.70;95.90
20526;DHT22;10421;49.142;9.232;2023-11-19T14:05:07;18.80;95.80
20526;DHT22;10421;49.142;9.232;2023-11-19T14:07:34;18.90;95.60
20526;DHT22;10421;49.142;9.232;2023-11-19T14:10:01;19.00;95.50
20526;DHT22;10421;49.142;9.232;2023-11-19T14:12:28;18.90;95.10
20526;DHT22;10421;49.142;9.232;2023-11-19T14:14:55;18.70;95.00
20526;DHT22;10421;49.142;9.232;2023-11-19T14:17:21;18.70;95.20
20526;DHT22;10421;49.142;9.232;2023-11-19T14:19:50;18.60;95.30
20526;DHT22;10421;49.142;9.232;2023-11-19T14:22:18;18.50;95.20
20526;DHT22;10421;49.142;9.232;2023-11-19T14:24:45;18.50;95.50
20526;DHT22;10421;49.142;9.232;2023-11-19T14:27:12;18.50;95.50
20526;DHT22;10421;49.142;9.232;2023-11-19T14:29:39;18.50;95.40
20526;DHT22;10421;49.142;9.232;2023-11-19T14:32:06;18.40;95.20
20526;DHT22;10421;49.142;9.232;2023-11-19T14:34:33;18.40;95.30
20526;DHT22;10421;49.142;9.232;2023-11-19T14:36:59;18.50;94.90
20526;DHT22;10421;49.142;9.232;2023-11-19T14:39:28;18.50;94.50
20526;DHT22;10421;49.142;9.232;2023-11-19T14:41:56;18.60;94.50
20526;DHT22;10421;49.142;9.232;2023-11-19T14:44:26;18.50;94.30
20526;DHT22;10421;49.142;9.232;2023-11-19T14:46:54;18.50;94.20
20526;DHT22;10421;49.142;9.232;2023-11-19T14:49:21;18.50;94.10
20526;DHT22;10421;49.142;9.232;2023-11-19T14:51:49;18.40;94.10
20526;DHT22;10421;49.142;9.232;2023-11-19T14:54:16;18.40;94.20
20526;DHT22;10421;49.142;9.232;2023-11-19T14:56:44;18.40;94.20
20526;DHT22;10421;49.142;9.232;2023-11-19T14:59:10;18.30;94.20
20526;DHT22;10421;49.142;9.232;2023-11-19T15:01:37;18.20;94.10
20526;DHT22;10421;49.142;9.232;2023-11-19T15:04:05;18.00;94.30
20526;DHT22;10421;49.142;9.232;2023-11-19T15:06:32;18.00;94.40
20526;DHT22;10421;49.142;9.232;2023-11-19T15:08:59;17.80;94.40
20526;DHT22;10421;49.142;9.232;2023-11-19T15:11:26;17.70;94.70
20526;DHT22;10421;49.142;9.232;2023-11-19T15:13:54;17.60;94.80
20526;DHT22;10421;49.142;9.232;2023-11-19T15:16:21;17.40;94.80
20526;DHT22;10421;49.142;9.232;2023-11-19T15:18:56;17.30;95.10
20526;DHT22;10421;49.142;9.232;2023-11-19T15:21:24;17.30;95.10
20526;DHT22;10421;49.142;9.232;2023-11-19T15:23:51;17.20;95.00
20526;DHT22;10421;49.142;9.232;2023-11-19T15:26:18;17.20;95.10
20526;DHT22;10421;49.142;9.232;2023-11-19T15:28:45;17.20;95.20
20526;DHT22;10421;49.142;9.232;2023-11-19T15:31:14;17.20;95.30
20526;DHT22;10421;49.142;9.232;2023-11-19T15:33:41;17.20;95.40
20526;DHT22;10421;49.142;9.232;2023-11-19T15:36:09;17.10;95.50